Share

Greenbush, MN

Roseau Municipal-Billberg (KROX) Elev 1060 ft | 48.86 °N, 95.70 °W | Change Station

Current weather conditions updated 7 minutes ago

Clear
Clear
32 °F
Feels Like 29 °F
N
4
Wind Variable Wind from South
Sunrise 6:24 AM
Sunset 8:23 PM
Moon Waning Gibbous

Today is forecast to be Warmer than yesterday.

Pressure 30.00 in
Visibility 10.0 miles
Clouds Clear
Windchill 29 °F
Dew Point 28 °F
Humidity 87%
Rainfall 0.00 in
Snow Depth Not available.
UV 0 out of 16
Pollen 9.40 out of 12
Air Quality Not available.
Flu Activity Sporadic
METAR KROX 200934Z AUTO 19003KT 10SM CLR 00/M02 A3000 RMK AO2

More Conditions Fewer Conditions

Pressure 30.00 in
Visibility 10.0 miles
Clouds Clear
Windchill 29 °F
Dew Point 28 °F
Humidity 87%
Rainfall 0.00 in
Snow Depth Not available.
UV 0 out of 16
Pollen 9.40 out of 12
Air Quality Not available.
Flu Activity Sporadic
METAR KROX 200934Z AUTO 19003KT 10SM CLR 00/M02 A3000 RMK AO2

More Conditions Fewer Conditions

10-Day Weather Forecast

Almanac

Astronomy

Apr. 20, 2014 Rise Set
Actual Time 6:24 AM CDT 8:23 PM CDT
Civil Twilight 5:50 AM CDT 8:57 PM CDT
Nautical Twilight 5:09 AM CDT 9:39 PM CDT
Astronomical Twilight 4:22 AM CDT 10:26 PM CDT
Moon 1:14 AM CDT 10:36 AM CDT
Length of Visible Light 15h 07m
Length of Day
13h 59m
Tomorrow will be 3m 22s longer.
Waning Gibbous, 71% of the Moon is Illuminated
Today
Waning Gibbous
Apr 22
Last Quarter
Apr 29
New
May 6
First Quarter
May 14
Full

Today's Extremes

State Highs State Lows

Community

  • Sunny day at the coast-Cape Arago Lighthouse
    Sunny day at the coast-Cape Arago Lighthouse
  • Cherry Blossoms
    Cherry Blossoms
  • White-Crowned Sparrow
    White-Crowned Sparrow
  • New Day
    New Day
  • Happy Easter!
    Happy Easter!

WunderPhotos

Upload Photos

1,703,123 photos uploaded!

WunderBlogs® & News

Nearby

Snow Depth

Station Depth Elevation
No new snow has been reported.

Coastal Water Temperatures

Place Temperature
No Stations Reporting

Earthquake Activity

City Distance Mag. Time & Date
No recent earthquake activity has been reported nearby.
Minimum magnitude displayed is 2.5.

Nearby Weather Stations

Station Location Temp. Windchill Dew Point Humidity Wind Precip. Elev Updated Type
RAWS KITTSON MN, Karlstad, MN 30 °F 26 °F 29 °F 96% SE  at  4 mph 0.00 in / hr 1060 ft 3:32 AM CDT MADIS
RAWS ROSEAU MN, Roseau, MN 32 °F 28 °F 30 °F 91% WSW  at  4 mph 0.00 in / hr 1046 ft 3:08 AM CDT MADIS

Show More Stations Show Fewer Stations

What do you think?

We're not finished. Please let us know what you like, what you don't like, and what you are still missing.